sensor_id;sensor_type;location;lat;lon;timestamp;P1;durP1;ratioP1;P2;durP2;ratioP2
23712;SDS011;12035;49.978;8.298;2023-04-24T00:00:59;2.38;;;0.77;;
23712;SDS011;12035;49.978;8.298;2023-04-24T00:05:57;2.00;;;0.70;;
23712;SDS011;12035;49.978;8.298;2023-04-24T00:10:58;1.88;;;0.65;;
23712;SDS011;12035;49.978;8.298;2023-04-24T00:15:58;2.50;;;0.60;;
23712;SDS011;12035;49.978;8.298;2023-04-24T00:20:56;2.58;;;0.60;;
23712;SDS011;12035;49.978;8.298;2023-04-24T00:25:53;1.23;;;0.75;;
23712;SDS011;12035;49.978;8.298;2023-04-24T00:30:52;1.10;;;0.60;;
23712;SDS011;12035;49.978;8.298;2023-04-24T00:35:49;1.75;;;0.63;;
23712;SDS011;12035;49.978;8.298;2023-04-24T00:40:47;1.15;;;0.60;;
23712;SDS011;12035;49.978;8.298;2023-04-24T00:45:45;1.85;;;0.60;;
23712;SDS011;12035;49.978;8.298;2023-04-24T00:50:45;1.45;;;0.50;;
23712;SDS011;12035;49.978;8.298;2023-04-24T00:55:42;4.32;;;0.65;;
23712;SDS011;12035;49.978;8.298;2023-04-24T01:00:40;1.25;;;0.40;;
23712;SDS011;12035;49.978;8.298;2023-04-24T01:05:37;1.50;;;0.50;;
23712;SDS011;12035;49.978;8.298;2023-04-24T01:10:36;1.73;;;0.70;;
23712;SDS011;12035;49.978;8.298;2023-04-24T01:15:35;0.98;;;0.40;;
23712;SDS011;12035;49.978;8.298;2023-04-24T01:20:32;1.10;;;0.40;;
23712;SDS011;12035;49.978;8.298;2023-04-24T01:25:33;0.95;;;0.50;;
23712;SDS011;12035;49.978;8.298;2023-04-24T01:30:30;1.15;;;0.50;;
23712;SDS011;12035;49.978;8.298;2023-04-24T01:35:28;2.85;;;0.73;;
23712;SDS011;12035;49.978;8.298;2023-04-24T01:40:26;1.45;;;0.47;;
23712;SDS011;12035;49.978;8.298;2023-04-24T01:45:25;2.88;;;0.75;;
23712;SDS011;12035;49.978;8.298;2023-04-24T01:50:23;0.68;;;0.50;;
23712;SDS011;12035;49.978;8.298;2023-04-24T01:55:20;2.03;;;0.60;;
23712;SDS011;12035;49.978;8.298;2023-04-24T02:00:17;2.67;;;0.90;;
23712;SDS011;12035;49.978;8.298;2023-04-24T02:05:17;2.67;;;0.77;;
23712;SDS011;12035;49.978;8.298;2023-04-24T02:10:15;1.58;;;0.65;;
23712;SDS011;12035;49.978;8.298;2023-04-24T02:15:12;1.55;;;0.68;;
23712;SDS011;12035;49.978;8.298;2023-04-24T02:20:10;2.47;;;0.70;;
23712;SDS011;12035;49.978;8.298;2023-04-24T02:25:09;1.08;;;0.52;;
23712;SDS011;12035;49.978;8.298;2023-04-24T02:30:09;1.30;;;0.63;;
23712;SDS011;12035;49.978;8.298;2023-04-24T02:35:07;2.85;;;0.73;;
23712;SDS011;12035;49.978;8.298;2023-04-24T02:40:05;1.92;;;0.70;;
23712;SDS011;12035;49.978;8.298;2023-04-24T02:45:07;1.65;;;0.70;;
23712;SDS011;12035;49.978;8.298;2023-04-24T02:50:06;1.92;;;1.02;;
23712;SDS011;12035;49.978;8.298;2023-04-24T02:55:05;0.90;;;0.50;;
23712;SDS011;12035;49.978;8.298;2023-04-24T03:00:06;2.47;;;0.60;;
23712;SDS011;12035;49.978;8.298;2023-04-24T03:05:04;1.38;;;0.40;;
23712;SDS011;12035;49.978;8.298;2023-04-24T03:10:04;1.65;;;0.47;;
23712;SDS011;12035;49.978;8.298;2023-04-24T03:15:06;1.50;;;0.50;;
23712;SDS011;12035;49.978;8.298;2023-04-24T03:20:05;2.55;;;0.57;;
23712;SDS011;12035;49.978;8.298;2023-04-24T03:25:04;1.55;;;0.50;;
23712;SDS011;12035;49.978;8.298;2023-04-24T03:30:06;2.15;;;0.50;;
23712;SDS011;12035;49.978;8.298;2023-04-24T03:35:05;0.98;;;0.55;;
23712;SDS011;12035;49.978;8.298;2023-04-24T03:40:03;1.48;;;0.47;;
23712;SDS011;12035;49.978;8.298;2023-04-24T03:45:03;1.27;;;0.60;;
23712;SDS011;12035;49.978;8.298;2023-04-24T03:50:04;1.77;;;0.60;;
23712;SDS011;12035;49.978;8.298;2023-04-24T03:55:03;0.90;;;0.63;;
23712;SDS011;12035;49.978;8.298;2023-04-24T04:00:01;1.10;;;0.60;;
23712;SDS011;12035;49.978;8.298;2023-04-24T04:05:02;1.05;;;0.65;;
23712;SDS011;12035;49.978;8.298;2023-04-24T04:10:00;1.35;;;0.63;;
23712;SDS011;12035;49.978;8.298;2023-04-24T04:14:57;1.15;;;0.60;;
23712;SDS011;12035;49.978;8.298;2023-04-24T04:19:54;1.80;;;0.70;;
23712;SDS011;12035;49.978;8.298;2023-04-24T04:24:56;1.70;;;0.95;;
23712;SDS011;12035;49.978;8.298;2023-04-24T04:29:55;3.42;;;0.85;;
23712;SDS011;12035;49.978;8.298;2023-04-24T04:34:52;2.97;;;1.00;;
23712;SDS011;12035;49.978;8.298;2023-04-24T04:39:49;2.22;;;1.10;;
23712;SDS011;12035;49.978;8.298;2023-04-24T04:44:50;2.22;;;1.35;;
23712;SDS011;12035;49.978;8.298;2023-04-24T04:49:48;1.45;;;1.02;;
23712;SDS011;12035;49.978;8.298;2023-04-24T04:54:46;2.13;;;0.98;;
23712;SDS011;12035;49.978;8.298;2023-04-24T04:59:44;1.48;;;0.93;;
23712;SDS011;12035;49.978;8.298;2023-04-24T05:04:43;1.92;;;1.25;;
23712;SDS011;12035;49.978;8.298;2023-04-24T05:09:40;2.65;;;1.60;;
23712;SDS011;12035;49.978;8.298;2023-04-24T05:14:37;3.47;;;1.30;;
23712;SDS011;12035;49.978;8.298;2023-04-24T05:19:35;4.28;;;1.48;;
23712;SDS011;12035;49.978;8.298;2023-04-24T05:24:37;2.67;;;1.52;;
23712;SDS011;12035;49.978;8.298;2023-04-24T05:29:36;2.78;;;1.35;;
23712;SDS011;12035;49.978;8.298;2023-04-24T05:34:33;2.28;;;1.38;;
23712;SDS011;12035;49.978;8.298;2023-04-24T05:39:31;2.70;;;1.40;;
23712;SDS011;12035;49.978;8.298;2023-04-24T05:44:30;2.92;;;1.40;;
23712;SDS011;12035;49.978;8.298;2023-04-24T05:49:27;3.30;;;1.55;;
23712;SDS011;12035;49.978;8.298;2023-04-24T05:54:24;2.97;;;1.60;;
23712;SDS011;12035;49.978;8.298;2023-04-24T05:59:22;2.67;;;1.60;;
23712;SDS011;12035;49.978;8.298;2023-04-24T06:04:21;2.90;;;1.40;;
23712;SDS011;12035;49.978;8.298;2023-04-24T06:09:19;2.90;;;1.60;;
23712;SDS011;12035;49.978;8.298;2023-04-24T06:14:17;2.13;;;1.50;;
23712;SDS011;12035;49.978;8.298;2023-04-24T06:19:14;3.20;;;1.40;;
23712;SDS011;12035;49.978;8.298;2023-04-24T06:24:14;2.40;;;1.40;;
23712;SDS011;12035;49.978;8.298;2023-04-24T06:29:12;2.30;;;1.23;;
23712;SDS011;12035;49.978;8.298;2023-04-24T06:34:09;4.72;;;1.70;;
23712;SDS011;12035;49.978;8.298;2023-04-24T06:39:06;2.67;;;1.77;;
23712;SDS011;12035;49.978;8.298;2023-04-24T06:44:05;4.53;;;2.13;;
23712;SDS011;12035;49.978;8.298;2023-04-24T06:49:03;3.42;;;1.95;;
23712;SDS011;12035;49.978;8.298;2023-04-24T06:54:00;4.18;;;2.25;;
23712;SDS011;12035;49.978;8.298;2023-04-24T06:58:58;3.80;;;1.90;;
23712;SDS011;12035;49.978;8.298;2023-04-24T07:03:57;5.15;;;2.13;;
23712;SDS011;12035;49.978;8.298;2023-04-24T07:08:54;4.13;;;1.73;;
23712;SDS011;12035;49.978;8.298;2023-04-24T07:13:52;3.75;;;1.95;;
23712;SDS011;12035;49.978;8.298;2023-04-24T07:18:49;3.50;;;1.95;;
23712;SDS011;12035;49.978;8.298;2023-04-24T07:23:48;3.25;;;1.73;;
23712;SDS011;12035;49.978;8.298;2023-04-24T07:28:45;2.78;;;1.65;;
23712;SDS011;12035;49.978;8.298;2023-04-24T07:33:42;2.92;;;1.77;;
23712;SDS011;12035;49.978;8.298;2023-04-24T07:38:40;4.35;;;1.70;;
23712;SDS011;12035;49.978;8.298;2023-04-24T07:43:39;3.33;;;1.55;;
23712;SDS011;12035;49.978;8.298;2023-04-24T07:48:37;4.57;;;1.40;;
23712;SDS011;12035;49.978;8.298;2023-04-24T07:53:34;2.10;;;1.70;;
23712;SDS011;12035;49.978;8.298;2023-04-24T07:58:32;2.63;;;1.55;;
23712;SDS011;12035;49.978;8.298;2023-04-24T08:03:31;2.30;;;1.42;;
23712;SDS011;12035;49.978;8.298;2023-04-24T08:08:28;2.22;;;1.27;;
23712;SDS011;12035;49.978;8.298;2023-04-24T08:13:26;2.35;;;1.40;;
23712;SDS011;12035;49.978;8.298;2023-04-24T08:18:23;2.70;;;1.30;;
23712;SDS011;12035;49.978;8.298;2023-04-24T08:23:23;3.30;;;1.60;;
23712;SDS011;12035;49.978;8.298;2023-04-24T08:28:24;3.70;;;1.67;;
23712;SDS011;12035;49.978;8.298;2023-04-24T08:33:22;2.72;;;1.40;;
23712;SDS011;12035;49.978;8.298;2023-04-24T08:38:19;1.95;;;1.30;;
23712;SDS011;12035;49.978;8.298;2023-04-24T08:43:18;2.92;;;1.20;;
23712;SDS011;12035;49.978;8.298;2023-04-24T08:48:18;2.30;;;1.60;;
23712;SDS011;12035;49.978;8.298;2023-04-24T08:53:17;3.13;;;1.83;;
23712;SDS011;12035;49.978;8.298;2023-04-24T08:58:16;2.00;;;1.40;;
23712;SDS011;12035;49.978;8.298;2023-04-24T09:03:15;2.55;;;1.40;;
23712;SDS011;12035;49.978;8.298;2023-04-24T09:08:13;2.90;;;1.80;;
23712;SDS011;12035;49.978;8.298;2023-04-24T09:13:13;3.53;;;1.50;;
23712;SDS011;12035;49.978;8.298;2023-04-24T09:18:12;2.08;;;1.40;;
23712;SDS011;12035;49.978;8.298;2023-04-24T09:23:10;2.13;;;1.40;;
23712;SDS011;12035;49.978;8.298;2023-04-24T09:28:11;4.85;;;1.30;;
23712;SDS011;12035;49.978;8.298;2023-04-24T09:33:14;2.15;;;1.23;;
23712;SDS011;12035;49.978;8.298;2023-04-24T09:38:12;2.25;;;1.10;;
23712;SDS011;12035;49.978;8.298;2023-04-24T09:43:10;2.45;;;1.10;;
23712;SDS011;12035;49.978;8.298;2023-04-24T09:48:08;1.73;;;0.90;;
23712;SDS011;12035;49.978;8.298;2023-04-24T09:53:08;2.20;;;1.02;;
23712;SDS011;12035;49.978;8.298;2023-04-24T09:58:05;2.65;;;0.98;;
23712;SDS011;12035;49.978;8.298;2023-04-24T10:03:05;2.20;;;1.33;;
23712;SDS011;12035;49.978;8.298;2023-04-24T10:08:07;1.77;;;1.20;;
23712;SDS011;12035;49.978;8.298;2023-04-24T10:13:08;1.90;;;1.20;;
23712;SDS011;12035;49.978;8.298;2023-04-24T10:18:07;2.00;;;1.08;;
23712;SDS011;12035;49.978;8.298;2023-04-24T10:23:05;3.63;;;1.35;;
23712;SDS011;12035;49.978;8.298;2023-04-24T10:28:05;3.22;;;1.30;;
23712;SDS011;12035;49.978;8.298;2023-04-24T10:33:03;1.45;;;0.90;;
23712;SDS011;12035;49.978;8.298;2023-04-24T10:38:03;2.25;;;1.20;;
23712;SDS011;12035;49.978;8.298;2023-04-24T10:43:06;2.33;;;1.17;;
23712;SDS011;12035;49.978;8.298;2023-04-24T10:48:06;1.83;;;1.15;;
23712;SDS011;12035;49.978;8.298;2023-04-24T10:53:12;1.95;;;0.90;;
23712;SDS011;12035;49.978;8.298;2023-04-24T10:58:13;2.35;;;1.30;;
23712;SDS011;12035;49.978;8.298;2023-04-24T11:03:24;1.85;;;0.65;;
23712;SDS011;12035;49.978;8.298;2023-04-24T11:08:27;1.27;;;0.60;;
23712;SDS011;12035;49.978;8.298;2023-04-24T11:19:04;3.45;;;1.00;;
23712;SDS011;12035;49.978;8.298;2023-04-24T11:29:45;1.23;;;0.60;;
23712;SDS011;12035;49.978;8.298;2023-04-24T11:34:48;0.57;;;0.50;;
23712;SDS011;12035;49.978;8.298;2023-04-24T11:39:47;1.10;;;0.45;;
23712;SDS011;12035;49.978;8.298;2023-04-24T11:44:51;1.67;;;0.95;;
23712;SDS011;12035;49.978;8.298;2023-04-24T11:49:50;1.13;;;0.77;;
23712;SDS011;12035;49.978;8.298;2023-04-24T11:54:48;2.97;;;1.40;;
23712;SDS011;12035;49.978;8.298;2023-04-24T11:59:46;2.42;;;1.35;;
23712;SDS011;12035;49.978;8.298;2023-04-24T12:04:45;1.92;;;1.27;;
23712;SDS011;12035;49.978;8.298;2023-04-24T12:09:43;1.75;;;1.00;;
23712;SDS011;12035;49.978;8.298;2023-04-24T12:14:43;1.77;;;1.30;;
23712;SDS011;12035;49.978;8.298;2023-04-24T12:19:52;2.33;;;1.27;;
23712;SDS011;12035;49.978;8.298;2023-04-24T12:24:57;2.47;;;1.20;;
23712;SDS011;12035;49.978;8.298;2023-04-24T12:29:56;4.85;;;1.27;;
23712;SDS011;12035;49.978;8.298;2023-04-24T12:34:56;1.83;;;1.25;;
23712;SDS011;12035;49.978;8.298;2023-04-24T12:40:01;3.22;;;1.27;;
23712;SDS011;12035;49.978;8.298;2023-04-24T12:45:02;4.00;;;1.80;;
23712;SDS011;12035;49.978;8.298;2023-04-24T12:50:05;2.78;;;1.50;;
23712;SDS011;12035;49.978;8.298;2023-04-24T12:55:04;3.75;;;1.70;;
23712;SDS011;12035;49.978;8.298;2023-04-24T13:00:05;3.88;;;1.98;;
23712;SDS011;12035;49.978;8.298;2023-04-24T13:05:06;3.35;;;1.50;;
23712;SDS011;12035;49.978;8.298;2023-04-24T13:10:07;3.95;;;1.85;;
23712;SDS011;12035;49.978;8.298;2023-04-24T13:15:06;3.08;;;1.88;;
23712;SDS011;12035;49.978;8.298;2023-04-24T13:20:07;3.55;;;1.90;;
23712;SDS011;12035;49.978;8.298;2023-04-24T13:25:05;5.85;;;2.08;;
23712;SDS011;12035;49.978;8.298;2023-04-24T13:30:04;2.95;;;1.70;;
23712;SDS011;12035;49.978;8.298;2023-04-24T13:35:02;3.28;;;1.65;;
23712;SDS011;12035;49.978;8.298;2023-04-24T13:40:02;3.35;;;2.03;;
23712;SDS011;12035;49.978;8.298;2023-04-24T13:45:02;4.25;;;1.90;;
23712;SDS011;12035;49.978;8.298;2023-04-24T13:50:00;4.47;;;1.90;;
23712;SDS011;12035;49.978;8.298;2023-04-24T13:54:57;4.57;;;2.25;;
23712;SDS011;12035;49.978;8.298;2023-04-24T13:59:59;4.75;;;1.90;;
23712;SDS011;12035;49.978;8.298;2023-04-24T14:04:58;5.03;;;2.38;;
23712;SDS011;12035;49.978;8.298;2023-04-24T14:09:56;6.78;;;2.40;;
23712;SDS011;12035;49.978;8.298;2023-04-24T14:14:53;3.85;;;1.63;;
23712;SDS011;12035;49.978;8.298;2023-04-24T14:19:52;3.58;;;1.83;;
23712;SDS011;12035;49.978;8.298;2023-04-24T14:24:51;4.55;;;2.20;;
23712;SDS011;12035;49.978;8.298;2023-04-24T14:29:48;4.05;;;1.73;;
23712;SDS011;12035;49.978;8.298;2023-04-24T14:34:48;5.15;;;2.22;;
23712;SDS011;12035;49.978;8.298;2023-04-24T14:39:46;4.07;;;1.60;;
23712;SDS011;12035;49.978;8.298;2023-04-24T14:44:44;3.50;;;1.80;;
23712;SDS011;12035;49.978;8.298;2023-04-24T14:49:42;3.47;;;1.80;;
23712;SDS011;12035;49.978;8.298;2023-04-24T14:54:39;5.15;;;2.00;;
23712;SDS011;12035;49.978;8.298;2023-04-24T14:59:38;6.03;;;2.08;;
23712;SDS011;12035;49.978;8.298;2023-04-24T15:04:36;2.50;;;1.80;;
23712;SDS011;12035;49.978;8.298;2023-04-24T15:09:33;5.40;;;1.80;;
23712;SDS011;12035;49.978;8.298;2023-04-24T15:14:31;3.22;;;1.63;;
23712;SDS011;12035;49.978;8.298;2023-04-24T15:19:30;3.03;;;1.60;;
23712;SDS011;12035;49.978;8.298;2023-04-24T15:24:27;2.78;;;1.60;;
23712;SDS011;12035;49.978;8.298;2023-04-24T15:29:25;3.97;;;1.58;;
23712;SDS011;12035;49.978;8.298;2023-04-24T15:34:22;3.35;;;1.70;;
23712;SDS011;12035;49.978;8.298;2023-04-24T15:39:23;3.97;;;1.70;;
23712;SDS011;12035;49.978;8.298;2023-04-24T15:44:21;3.53;;;1.73;;
23712;SDS011;12035;49.978;8.298;2023-04-24T15:49:19;3.28;;;1.70;;
23712;SDS011;12035;49.978;8.298;2023-04-24T15:54:16;4.03;;;1.80;;
23712;SDS011;12035;49.978;8.298;2023-04-24T15:59:16;3.50;;;1.73;;
23712;SDS011;12035;49.978;8.298;2023-04-24T16:04:13;3.08;;;1.70;;
23712;SDS011;12035;49.978;8.298;2023-04-24T16:09:11;2.85;;;1.58;;
23712;SDS011;12035;49.978;8.298;2023-04-24T16:14:09;4.55;;;1.80;;
23712;SDS011;12035;49.978;8.298;2023-04-24T16:19:08;3.47;;;1.60;;
23712;SDS011;12035;49.978;8.298;2023-04-24T16:24:06;3.67;;;1.58;;
23712;SDS011;12035;49.978;8.298;2023-04-24T16:29:03;3.55;;;1.40;;
23712;SDS011;12035;49.978;8.298;2023-04-24T16:34:00;3.47;;;1.58;;
23712;SDS011;12035;49.978;8.298;2023-04-24T16:39:00;4.80;;;1.80;;
23712;SDS011;12035;49.978;8.298;2023-04-24T16:43:58;2.75;;;1.70;;
23712;SDS011;12035;49.978;8.298;2023-04-24T16:48:56;2.22;;;1.30;;
23712;SDS011;12035;49.978;8.298;2023-04-24T16:53:54;3.28;;;1.40;;
23712;SDS011;12035;49.978;8.298;2023-04-24T16:58:52;1.80;;;1.23;;
23712;SDS011;12035;49.978;8.298;2023-04-24T17:03:50;2.65;;;1.20;;
23712;SDS011;12035;49.978;8.298;2023-04-24T17:08:47;3.28;;;1.33;;
23712;SDS011;12035;49.978;8.298;2023-04-24T17:13:45;3.05;;;1.60;;
23712;SDS011;12035;49.978;8.298;2023-04-24T17:18:44;5.57;;;1.60;;
23712;SDS011;12035;49.978;8.298;2023-04-24T17:23:41;3.65;;;2.20;;
23712;SDS011;12035;49.978;8.298;2023-04-24T17:28:38;3.95;;;2.40;;
23712;SDS011;12035;49.978;8.298;2023-04-24T17:33:36;2.70;;;1.90;;
23712;SDS011;12035;49.978;8.298;2023-04-24T17:38:35;4.63;;;2.13;;
23712;SDS011;12035;49.978;8.298;2023-04-24T17:43:32;4.65;;;2.20;;
23712;SDS011;12035;49.978;8.298;2023-04-24T17:48:30;5.40;;;2.47;;
23712;SDS011;12035;49.978;8.298;2023-04-24T17:53:27;3.15;;;2.13;;
23712;SDS011;12035;49.978;8.298;2023-04-24T17:58:27;3.17;;;2.38;;
23712;SDS011;12035;49.978;8.298;2023-04-24T18:03:25;4.80;;;2.30;;
23712;SDS011;12035;49.978;8.298;2023-04-24T18:08:22;7.15;;;2.65;;
23712;SDS011;12035;49.978;8.298;2023-04-24T18:13:20;3.00;;;2.20;;
23712;SDS011;12035;49.978;8.298;2023-04-24T18:18:18;4.13;;;2.20;;
23712;SDS011;12035;49.978;8.298;2023-04-24T18:23:16;2.90;;;2.10;;
23712;SDS011;12035;49.978;8.298;2023-04-24T18:28:13;4.28;;;2.13;;
23712;SDS011;12035;49.978;8.298;2023-04-24T18:33:10;4.97;;;1.90;;
23712;SDS011;12035;49.978;8.298;2023-04-24T18:38:11;2.53;;;1.60;;
23712;SDS011;12035;49.978;8.298;2023-04-24T18:43:08;2.97;;;1.90;;
23712;SDS011;12035;49.978;8.298;2023-04-24T18:48:05;3.50;;;1.60;;
23712;SDS011;12035;49.978;8.298;2023-04-24T18:53:03;2.92;;;1.98;;
23712;SDS011;12035;49.978;8.298;2023-04-24T18:58:02;3.35;;;1.85;;
23712;SDS011;12035;49.978;8.298;2023-04-24T19:03:00;1.75;;;1.20;;
23712;SDS011;12035;49.978;8.298;2023-04-24T19:08:00;3.15;;;1.50;;
23712;SDS011;12035;49.978;8.298;2023-04-24T19:12:57;2.10;;;1.27;;
23712;SDS011;12035;49.978;8.298;2023-04-24T19:17:57;2.58;;;1.40;;
23712;SDS011;12035;49.978;8.298;2023-04-24T19:22:55;2.47;;;1.52;;
23712;SDS011;12035;49.978;8.298;2023-04-24T19:27:53;2.60;;;1.48;;
23712;SDS011;12035;49.978;8.298;2023-04-24T19:32:50;2.47;;;1.70;;
23712;SDS011;12035;49.978;8.298;2023-04-24T19:37:49;2.72;;;1.65;;
23712;SDS011;12035;49.978;8.298;2023-04-24T19:42:46;3.47;;;1.83;;
23712;SDS011;12035;49.978;8.298;2023-04-24T19:47:44;4.13;;;1.90;;
23712;SDS011;12035;49.978;8.298;2023-04-24T19:52:41;2.55;;;1.67;;
23712;SDS011;12035;49.978;8.298;2023-04-24T19:57:40;4.03;;;2.10;;
23712;SDS011;12035;49.978;8.298;2023-04-24T20:02:38;3.78;;;2.00;;
23712;SDS011;12035;49.978;8.298;2023-04-24T20:07:35;3.75;;;2.03;;
23712;SDS011;12035;49.978;8.298;2023-04-24T20:12:33;4.32;;;2.15;;
23712;SDS011;12035;49.978;8.298;2023-04-24T20:17:32;3.45;;;2.08;;
23712;SDS011;12035;49.978;8.298;2023-04-24T20:22:29;3.72;;;2.67;;
23712;SDS011;12035;49.978;8.298;2023-04-24T20:27:29;3.97;;;2.40;;
23712;SDS011;12035;49.978;8.298;2023-04-24T20:32:26;3.00;;;2.10;;
23712;SDS011;12035;49.978;8.298;2023-04-24T20:37:25;2.85;;;2.10;;
23712;SDS011;12035;49.978;8.298;2023-04-24T20:42:23;3.25;;;2.15;;
23712;SDS011;12035;49.978;8.298;2023-04-24T20:47:20;3.38;;;2.17;;
23712;SDS011;12035;49.978;8.298;2023-04-24T20:52:19;4.13;;;2.25;;
23712;SDS011;12035;49.978;8.298;2023-04-24T20:57:20;3.22;;;2.25;;
23712;SDS011;12035;49.978;8.298;2023-04-24T21:02:19;2.55;;;1.73;;
23712;SDS011;12035;49.978;8.298;2023-04-24T21:07:18;3.38;;;1.98;;
23712;SDS011;12035;49.978;8.298;2023-04-24T21:12:16;2.70;;;2.00;;
23712;SDS011;12035;49.978;8.298;2023-04-24T21:17:14;3.30;;;2.40;;
23712;SDS011;12035;49.978;8.298;2023-04-24T21:22:12;2.85;;;1.92;;
23712;SDS011;12035;49.978;8.298;2023-04-24T21:27:09;3.08;;;1.88;;
23712;SDS011;12035;49.978;8.298;2023-04-24T21:32:06;3.22;;;2.00;;
23712;SDS011;12035;49.978;8.298;2023-04-24T21:37:05;2.72;;;2.10;;
23712;SDS011;12035;49.978;8.298;2023-04-24T21:42:03;2.78;;;2.00;;
23712;SDS011;12035;49.978;8.298;2023-04-24T21:47:00;2.95;;;2.00;;
23712;SDS011;12035;49.978;8.298;2023-04-24T21:51:57;3.42;;;2.05;;
23712;SDS011;12035;49.978;8.298;2023-04-24T21:56:57;3.10;;;2.13;;
23712;SDS011;12035;49.978;8.298;2023-04-24T22:01:57;2.78;;;1.83;;
23712;SDS011;12035;49.978;8.298;2023-04-24T22:06:57;2.80;;;1.80;;
23712;SDS011;12035;49.978;8.298;2023-04-24T22:11:57;3.15;;;1.92;;
23712;SDS011;12035;49.978;8.298;2023-04-24T22:16:54;3.88;;;2.42;;
23712;SDS011;12035;49.978;8.298;2023-04-24T22:21:52;3.53;;;2.17;;
23712;SDS011;12035;49.978;8.298;2023-04-24T22:26:49;2.67;;;1.90;;
23712;SDS011;12035;49.978;8.298;2023-04-24T22:31:48;3.97;;;1.45;;
23712;SDS011;12035;49.978;8.298;2023-04-24T22:36:46;2.65;;;1.60;;
23712;SDS011;12035;49.978;8.298;2023-04-24T22:41:43;1.90;;;1.08;;
23712;SDS011;12035;49.978;8.298;2023-04-24T22:46:41;1.88;;;1.20;;
23712;SDS011;12035;49.978;8.298;2023-04-24T22:51:42;2.47;;;0.93;;
23712;SDS011;12035;49.978;8.298;2023-04-24T22:56:39;1.80;;;1.15;;
23712;SDS011;12035;49.978;8.298;2023-04-24T23:01:37;1.77;;;1.08;;
23712;SDS011;12035;49.978;8.298;2023-04-24T23:06:34;2.88;;;1.45;;
23712;SDS011;12035;49.978;8.298;2023-04-24T23:11:36;1.58;;;1.05;;
23712;SDS011;12035;49.978;8.298;2023-04-24T23:16:38;2.00;;;1.20;;
23712;SDS011;12035;49.978;8.298;2023-04-24T23:21:36;1.80;;;1.20;;
23712;SDS011;12035;49.978;8.298;2023-04-24T23:26:34;2.75;;;1.50;;
23712;SDS011;12035;49.978;8.298;2023-04-24T23:31:33;2.60;;;1.65;;
23712;SDS011;12035;49.978;8.298;2023-04-24T23:36:30;3.20;;;1.85;;
23712;SDS011;12035;49.978;8.298;2023-04-24T23:54:04;3.67;;;2.15;;
23712;SDS011;12035;49.978;8.298;2023-04-24T23:59:29;3.53;;;2.10;;
